Time;durP1;ratioP1;P1;durP2;ratioP2;P2;SDS_P1;SDS_P2;PMS_P1;PMS_P2;Temp;Humidity;BMP_temperature;BMP_pressure;BME280_temperature;BME280_humidity;BME280_pressure;Samples;Min_cycle;Max_cycle;Signal;HPM_P1;HPM_P2
2023/07/24 00:00:21;;;;;;;3.47;2.28;;;19.60;99.90;;;;;;4176007;28;20240;-61
2023/07/24 00:02:21;;;;;;;1.65;1.40;;;19.60;99.90;;;;;;4168277;28;20401;-62
2023/07/24 00:04:22;;;;;;;4.65;2.08;;;19.60;99.90;;;;;;4175923;28;20029;-62
2023/07/24 00:06:22;;;;;;;2.95;2.05;;;19.50;99.90;;;;;;4173022;28;20032;-62
2023/07/24 00:08:23;;;;;;;2.70;2.00;;;19.50;99.90;;;;;;4177373;28;20032;-61
2023/07/24 00:10:24;;;;;;;2.42;2.03;;;19.60;99.90;;;;;;4177905;28;20040;-61
2023/07/24 00:12:25;;;;;;;4.00;2.45;;;19.50;99.90;;;;;;4178418;28;20392;-61
2023/07/24 00:14:25;;;;;;;4.47;2.40;;;19.50;99.90;;;;;;4176215;28;20508;-61
2023/07/24 00:16:26;;;;;;;3.63;2.63;;;19.50;99.90;;;;;;4172167;28;20096;-61
2023/07/24 00:18:26;;;;;;;3.58;2.50;;;19.50;99.90;;;;;;4178094;28;20484;-61
2023/07/24 00:20:27;;;;;;;2.55;2.20;;;19.50;99.90;;;;;;4174440;28;21059;-61
2023/07/24 00:22:28;;;;;;;2.83;2.30;;;19.50;99.90;;;;;;4166808;28;20083;-61
2023/07/24 00:24:30;;;;;;;2.58;2.05;;;19.40;99.90;;;;;;4177419;28;20049;-61
2023/07/24 00:26:30;;;;;;;3.03;2.42;;;19.50;99.90;;;;;;4174024;28;20032;-61
2023/07/24 00:28:31;;;;;;;2.75;2.10;;;19.50;99.90;;;;;;4175936;28;20104;-61
2023/07/24 00:30:31;;;;;;;4.47;2.80;;;19.50;99.90;;;;;;4175981;28;20087;-61
2023/07/24 00:32:32;;;;;;;2.75;2.20;;;19.50;99.90;;;;;;4177123;28;20029;-61
2023/07/24 00:34:32;;;;;;;3.42;2.47;;;19.50;99.90;;;;;;4167332;28;20042;-61
2023/07/24 00:36:33;;;;;;;4.95;2.75;;;19.50;99.90;;;;;;4170237;28;20083;-61
2023/07/24 00:38:33;;;;;;;3.25;2.47;;;19.50;99.90;;;;;;4167428;28;20033;-61
2023/07/24 00:40:34;;;;;;;2.97;2.58;;;19.50;99.90;;;;;;4173689;28;20037;-61
2023/07/24 00:42:35;;;;;;;3.15;2.28;;;19.50;99.90;;;;;;4175488;28;20033;-61
2023/07/24 00:44:36;;;;;;;4.60;2.55;;;19.50;99.90;;;;;;4176771;28;20037;-61
2023/07/24 00:46:37;;;;;;;3.38;2.42;;;19.50;99.90;;;;;;4172311;28;20021;-61
2023/07/24 00:48:39;;;;;;;2.80;2.35;;;19.50;99.90;;;;;;4178214;28;20079;-61
2023/07/24 00:50:42;;;;;;;3.13;2.40;;;19.50;99.90;;;;;;4173173;28;20057;-63
2023/07/24 00:52:43;;;;;;;4.30;2.65;;;19.50;99.90;;;;;;4177834;28;20404;-61
2023/07/24 00:54:45;;;;;;;2.60;2.25;;;19.60;99.90;;;;;;4175924;28;20033;-61
2023/07/24 00:56:45;;;;;;;2.57;2.20;;;19.50;99.90;;;;;;4175665;28;20512;-61
2023/07/24 00:58:47;;;;;;;3.05;2.47;;;19.60;99.90;;;;;;4177690;28;20045;-61
2023/07/24 01:00:48;;;;;;;3.08;2.38;;;19.60;99.90;;;;;;4172152;28;20484;-61
2023/07/24 01:02:49;;;;;;;3.15;2.40;;;19.50;99.90;;;;;;4175394;28;20037;-61
2023/07/24 01:04:50;;;;;;;4.80;2.78;;;19.50;99.90;;;;;;4171440;28;20032;-61
2023/07/24 01:06:50;;;;;;;3.15;2.60;;;19.50;99.90;;;;;;4172627;28;20037;-61
2023/07/24 01:08:51;;;;;;;4.75;2.83;;;19.50;99.90;;;;;;4177545;28;20048;-61
2023/07/24 01:10:52;;;;;;;3.83;2.72;;;19.50;99.90;;;;;;4172266;28;20106;-61
2023/07/24 01:13:09;;;;;;;3.58;2.63;;;19.50;99.90;;;;;;4174433;28;20392;-61
2023/07/24 01:15:24;;;;;;;4.18;2.90;;;19.50;99.90;;;;;;4149604;28;20091;-61
2023/07/24 01:17:29;;;;;;;3.45;2.45;;;19.50;99.90;;;;;;4170982;28;20454;-61
2023/07/24 01:19:40;;;;;;;2.70;2.40;;;19.50;99.90;;;;;;4171102;28;20040;-61
2023/07/24 01:22:25;;;;;;;3.05;2.50;;;19.50;99.90;;;;;;4172648;28;20037;-62
2023/07/24 01:24:40;;;;;;;2.72;2.38;;;19.50;99.90;;;;;;4161300;28;20048;-62
2023/07/24 01:26:41;;;;;;;2.50;2.10;;;19.40;99.90;;;;;;4171076;28;20032;-62
2023/07/24 01:28:42;;;;;;;4.43;2.97;;;19.50;99.90;;;;;;4177519;28;20395;-62
2023/07/24 01:30:42;;;;;;;4.80;2.95;;;19.40;99.90;;;;;;4172339;28;20108;-61
2023/07/24 01:32:43;;;;;;;4.38;2.85;;;19.40;99.90;;;;;;4174129;28;20039;-61
2023/07/24 01:34:44;;;;;;;8.85;2.80;;;19.40;99.90;;;;;;4174981;28;20112;-62
2023/07/24 01:36:45;;;;;;;3.60;2.75;;;19.40;99.90;;;;;;4173248;28;20475;-61
2023/07/24 01:38:48;;;;;;;4.45;3.08;;;19.40;99.90;;;;;;4173686;28;20085;-61
2023/07/24 01:40:48;;;;;;;4.13;3.08;;;19.40;99.90;;;;;;4176994;28;24378;-61
2023/07/24 01:42:50;;;;;;;3.72;2.70;;;19.30;99.90;;;;;;4177161;28;20057;-61
2023/07/24 01:44:54;;;;;;;5.60;2.72;;;19.30;99.90;;;;;;4174064;28;20051;-62
2023/07/24 01:46:55;;;;;;;3.22;2.60;;;19.40;99.90;;;;;;4172355;28;20112;-61
2023/07/24 01:48:56;;;;;;;3.13;2.33;;;19.30;99.90;;;;;;4176569;28;20029;-61
2023/07/24 01:50:57;;;;;;;3.78;2.28;;;19.30;99.90;;;;;;4173848;28;20025;-61
2023/07/24 01:52:57;;;;;;;3.35;2.35;;;19.40;99.90;;;;;;4177120;28;20554;-61
2023/07/24 01:54:58;;;;;;;3.13;2.75;;;19.40;99.90;;;;;;4175215;28;20036;-61
2023/07/24 01:56:59;;;;;;;3.88;2.50;;;19.40;99.90;;;;;;4174434;28;20029;-67
2023/07/24 01:58:59;;;;;;;2.85;2.20;;;19.40;99.90;;;;;;4175235;28;20033;-61
2023/07/24 02:01:00;;;;;;;3.47;2.47;;;19.40;99.90;;;;;;4173435;28;22936;-61
2023/07/24 02:03:00;;;;;;;3.53;2.50;;;19.30;99.90;;;;;;4175306;28;20041;-62
2023/07/24 02:05:01;;;;;;;3.58;2.83;;;19.40;99.90;;;;;;4174167;28;20516;-62
2023/07/24 02:07:01;;;;;;;6.28;2.80;;;19.40;99.90;;;;;;4172750;28;20403;-62
2023/07/24 02:09:02;;;;;;;4.15;2.60;;;19.30;99.90;;;;;;4171495;28;20053;-61
2023/07/24 02:11:03;;;;;;;3.83;2.13;;;19.30;99.90;;;;;;4175838;28;20117;-61
2023/07/24 02:13:03;;;;;;;2.97;2.47;;;19.40;99.90;;;;;;4175224;28;20037;-61
2023/07/24 02:15:04;;;;;;;3.55;2.63;;;19.40;99.90;;;;;;4173666;28;20495;-63
2023/07/24 02:17:05;;;;;;;3.65;2.53;;;19.40;99.90;;;;;;4173437;28;20063;-61
2023/07/24 02:19:06;;;;;;;4.05;2.88;;;19.30;99.90;;;;;;4169114;28;20033;-61
2023/07/24 02:21:06;;;;;;;5.25;2.78;;;19.30;99.90;;;;;;4175281;28;20037;-61
2023/07/24 02:23:08;;;;;;;4.57;3.05;;;19.30;99.90;;;;;;4174339;28;20045;-61
2023/07/24 02:25:09;;;;;;;3.80;2.85;;;19.30;99.90;;;;;;4175142;28;20032;-63
2023/07/24 02:27:23;;;;;;;3.83;2.53;;;19.30;99.90;;;;;;4167751;28;20128;-61
2023/07/24 02:29:24;;;;;;;4.13;2.85;;;19.30;99.90;;;;;;4168108;28;20036;-61
2023/07/24 02:31:25;;;;;;;3.95;2.50;;;19.30;99.90;;;;;;4167682;28;20033;-61
2023/07/24 02:33:26;;;;;;;4.43;2.83;;;19.30;99.90;;;;;;4176486;28;20069;-61
2023/07/24 02:35:27;;;;;;;4.85;2.83;;;19.30;99.90;;;;;;4173412;28;20717;-62
2023/07/24 02:37:27;;;;;;;4.57;2.50;;;19.30;99.90;;;;;;4174321;28;20369;-61
2023/07/24 02:39:28;;;;;;;4.45;2.65;;;19.30;99.90;;;;;;4176554;28;20055;-61
2023/07/24 02:41:28;;;;;;;3.25;2.75;;;19.30;99.90;;;;;;4174736;28;20086;-61
2023/07/24 02:43:29;;;;;;;2.92;2.50;;;19.30;99.90;;;;;;4174645;28;20484;-65
2023/07/24 02:45:29;;;;;;;2.70;2.40;;;19.30;99.90;;;;;;4173896;28;20455;-61
2023/07/24 02:47:30;;;;;;;2.85;2.50;;;19.30;99.90;;;;;;4171885;28;20040;-61
2023/07/24 02:49:32;;;;;;;5.28;2.83;;;19.30;99.90;;;;;;4169121;28;20179;-66
2023/07/24 02:51:33;;;;;;;5.13;2.85;;;19.30;99.90;;;;;;4174895;28;20029;-62
2023/07/24 02:53:33;;;;;;;4.13;2.95;;;19.30;99.90;;;;;;4171631;28;20395;-61
2023/07/24 02:55:34;;;;;;;3.88;2.80;;;19.30;99.90;;;;;;4172227;28;20044;-62
2023/07/24 02:57:34;;;;;;;5.63;2.38;;;19.30;99.90;;;;;;4173958;28;20029;-62
2023/07/24 02:59:35;;;;;;;3.15;2.55;;;19.40;99.90;;;;;;4174189;28;20032;-61
2023/07/24 03:01:36;;;;;;;4.20;2.45;;;19.40;99.90;;;;;;4173555;28;20017;-62
2023/07/24 03:03:37;;;;;;;4.50;2.95;;;19.40;99.90;;;;;;4170569;28;20021;-62
2023/07/24 03:05:37;;;;;;;4.63;2.90;;;19.30;99.90;;;;;;4168676;28;20056;-62
2023/07/24 03:07:38;;;;;;;7.45;3.25;;;19.30;99.90;;;;;;4172375;28;20021;-62
2023/07/24 03:09:39;;;;;;;5.20;3.22;;;19.30;99.90;;;;;;4171563;28;20102;-62
2023/07/24 03:11:39;;;;;;;3.60;2.95;;;19.30;99.90;;;;;;4167733;28;20088;-62
2023/07/24 03:13:40;;;;;;;3.75;2.80;;;19.30;99.90;;;;;;4167547;28;20056;-62
2023/07/24 03:15:41;;;;;;;6.97;3.38;;;19.30;99.90;;;;;;4149968;28;20032;-61
2023/07/24 03:17:42;;;;;;;4.38;2.53;;;19.30;99.90;;;;;;4165382;28;20100;-66
2023/07/24 03:19:42;;;;;;;5.25;3.38;;;19.30;99.90;;;;;;4155635;28;20036;-63
2023/07/24 03:21:43;;;;;;;3.95;2.83;;;19.30;99.90;;;;;;4167863;28;20483;-62
2023/07/24 03:23:43;;;;;;;5.70;3.00;;;19.30;99.90;;;;;;4173153;28;20112;-62
2023/07/24 03:25:44;;;;;;;6.78;3.50;;;19.20;99.90;;;;;;4173416;28;20487;-62
2023/07/24 03:27:45;;;;;;;5.53;3.28;;;19.20;99.90;;;;;;4173861;28;20029;-62
2023/07/24 03:29:45;;;;;;;3.50;2.80;;;19.20;99.90;;;;;;4171718;28;20037;-62
2023/07/24 03:31:46;;;;;;;6.50;3.40;;;19.30;99.90;;;;;;4175944;28;20544;-61
2023/07/24 03:33:46;;;;;;;4.95;3.30;;;19.20;99.90;;;;;;4175664;28;20480;-61
2023/07/24 03:35:47;;;;;;;5.07;2.90;;;19.20;99.90;;;;;;4172580;28;20029;-61
2023/07/24 03:37:47;;;;;;;3.67;2.90;;;19.20;99.90;;;;;;4173522;28;20083;-62
2023/07/24 03:39:48;;;;;;;4.95;2.90;;;19.20;99.90;;;;;;4177206;28;20115;-61
2023/07/24 03:41:49;;;;;;;3.00;2.70;;;19.20;99.90;;;;;;4160166;28;20496;-61
2023/07/24 03:43:49;;;;;;;4.88;3.10;;;19.20;99.90;;;;;;4178677;28;20040;-61
2023/07/24 03:45:50;;;;;;;5.47;3.15;;;19.20;99.90;;;;;;4175890;28;20029;-62
2023/07/24 03:47:51;;;;;;;3.50;2.90;;;19.30;99.90;;;;;;4176980;28;20029;-61
2023/07/24 03:49:51;;;;;;;5.90;3.70;;;19.30;99.90;;;;;;4176144;28;20064;-61
2023/07/24 03:51:52;;;;;;;5.50;3.10;;;19.20;99.90;;;;;;4176971;28;20037;-61
2023/07/24 03:53:52;;;;;;;5.40;3.55;;;19.20;99.90;;;;;;4177614;28;20380;-61
2023/07/24 03:55:53;;;;;;;4.72;2.92;;;19.30;99.90;;;;;;4171807;28;20045;-61
2023/07/24 03:57:54;;;;;;;5.25;3.10;;;19.20;99.90;;;;;;4177563;28;20107;-61
2023/07/24 03:59:54;;;;;;;4.47;2.88;;;19.30;99.90;;;;;;4178025;28;20357;-61
2023/07/24 04:01:55;;;;;;;6.00;3.33;;;19.20;99.90;;;;;;4169206;28;20086;-61
2023/07/24 04:03:57;;;;;;;6.70;3.83;;;19.30;99.90;;;;;;4154450;28;20109;-61
2023/07/24 04:05:58;;;;;;;5.32;2.97;;;19.20;99.90;;;;;;4169516;28;20064;-61
2023/07/24 04:07:59;;;;;;;5.40;3.58;;;19.20;99.90;;;;;;4177982;28;20528;-61
2023/07/24 04:10:00;;;;;;;8.20;3.92;;;19.30;99.90;;;;;;4178660;28;20094;-61
2023/07/24 04:12:00;;;;;;;4.30;3.10;;;19.20;99.90;;;;;;4177559;28;20033;-61
2023/07/24 04:14:01;;;;;;;7.88;4.10;;;19.30;99.90;;;;;;4177654;28;20373;-61
2023/07/24 04:16:02;;;;;;;4.13;3.33;;;19.30;99.90;;;;;;4174545;28;20029;-61
2023/07/24 04:18:02;;;;;;;6.55;3.30;;;19.20;99.90;;;;;;4175846;28;20033;-61
2023/07/24 04:20:03;;;;;;;5.72;3.00;;;19.20;99.90;;;;;;4175813;28;20048;-64
2023/07/24 04:22:04;;;;;;;5.85;3.47;;;19.20;99.90;;;;;;4171097;28;20067;-62
2023/07/24 04:24:05;;;;;;;6.03;3.28;;;19.20;99.90;;;;;;4173222;28;20112;-61
2023/07/24 04:26:05;;;;;;;5.53;3.47;;;19.20;99.90;;;;;;4170608;28;20037;-61
2023/07/24 04:28:06;;;;;;;9.23;3.95;;;19.10;99.90;;;;;;4170147;28;20151;-61
2023/07/24 04:30:07;;;;;;;7.50;3.53;;;19.20;99.90;;;;;;4167675;28;20029;-61
2023/07/24 04:32:08;;;;;;;6.10;3.45;;;19.10;99.90;;;;;;4168185;28;20102;-60
2023/07/24 04:34:08;;;;;;;5.97;3.60;;;19.10;99.90;;;;;;4162840;28;20464;-60
2023/07/24 04:36:09;;;;;;;7.85;3.85;;;19.10;99.90;;;;;;4168018;28;20508;-61
2023/07/24 04:38:09;;;;;;;6.88;3.45;;;19.10;99.90;;;;;;4170787;28;20034;-60
2023/07/24 04:40:11;;;;;;;5.82;3.22;;;19.10;99.90;;;;;;4169017;28;20026;-60
2023/07/24 04:42:11;;;;;;;5.25;3.35;;;19.10;99.90;;;;;;4177053;28;20040;-60
2023/07/24 04:44:12;;;;;;;5.18;3.70;;;19.10;99.90;;;;;;4176204;28;20041;-60
2023/07/24 04:46:12;;;;;;;5.13;3.38;;;19.10;99.90;;;;;;4150320;28;20035;-60
2023/07/24 04:48:13;;;;;;;6.50;3.60;;;19.10;99.90;;;;;;4169274;28;20037;-60
2023/07/24 04:50:14;;;;;;;4.63;3.22;;;19.10;99.90;;;;;;4169617;28;20036;-60
2023/07/24 04:52:14;;;;;;;3.83;2.85;;;19.10;99.90;;;;;;4177463;28;20400;-61
2023/07/24 04:54:15;;;;;;;6.65;3.53;;;19.10;99.90;;;;;;4176592;28;20060;-61
2023/07/24 04:56:15;;;;;;;6.50;3.47;;;19.10;99.90;;;;;;4173085;28;20028;-61
2023/07/24 04:58:16;;;;;;;9.40;3.80;;;19.10;99.90;;;;;;4176339;28;20040;-62
2023/07/24 05:00:16;;;;;;;4.40;3.28;;;19.10;99.90;;;;;;4174767;28;20025;-62
2023/07/24 05:02:17;;;;;;;6.35;3.45;;;19.20;99.90;;;;;;4173358;28;20037;-62
2023/07/24 05:04:18;;;;;;;5.43;3.28;;;19.20;99.90;;;;;;4171377;28;20033;-62
2023/07/24 05:06:18;;;;;;;9.15;3.55;;;19.10;99.90;;;;;;4173034;28;20053;-62
2023/07/24 05:08:19;;;;;;;4.63;2.90;;;19.10;99.90;;;;;;4177455;28;20094;-62
2023/07/24 05:10:19;;;;;;;5.47;3.70;;;19.20;99.90;;;;;;4172521;28;20033;-62
2023/07/24 05:12:20;;;;;;;4.70;3.20;;;19.20;99.90;;;;;;4173539;28;20033;-61
2023/07/24 05:14:20;;;;;;;5.00;2.95;;;19.10;99.90;;;;;;4176446;28;20388;-62
2023/07/24 05:16:21;;;;;;;7.28;3.65;;;19.10;99.90;;;;;;4171051;28;20029;-62
2023/07/24 05:18:21;;;;;;;5.60;3.88;;;19.20;99.90;;;;;;4174910;28;20037;-62
2023/07/24 05:20:22;;;;;;;5.18;3.35;;;19.20;99.90;;;;;;4176146;28;20112;-62
2023/07/24 05:22:23;;;;;;;8.05;4.00;;;19.20;99.90;;;;;;4173829;28;20082;-61
2023/07/24 05:24:23;;;;;;;6.60;3.58;;;19.20;99.90;;;;;;4175062;28;20049;-62
2023/07/24 05:26:24;;;;;;;6.90;3.90;;;19.10;99.90;;;;;;4157499;28;20045;-61
2023/07/24 05:28:28;;;;;;;5.43;3.58;;;19.10;99.90;;;;;;4148203;28;20036;-61
2023/07/24 05:30:28;;;;;;;5.22;3.60;;;19.10;99.90;;;;;;4171989;28;20048;-61
2023/07/24 05:32:29;;;;;;;8.57;3.67;;;19.10;99.90;;;;;;4171875;28;20037;-61
2023/07/24 05:34:30;;;;;;;4.38;3.10;;;19.10;99.90;;;;;;4176166;28;20040;-61
2023/07/24 05:36:30;;;;;;;5.63;3.78;;;19.20;99.90;;;;;;4173314;28;20032;-61
2023/07/24 05:38:31;;;;;;;6.18;3.72;;;19.10;99.90;;;;;;4171661;28;20112;-61
2023/07/24 05:40:32;;;;;;;8.05;3.88;;;19.10;99.90;;;;;;4166810;28;20068;-61
2023/07/24 05:42:32;;;;;;;5.95;3.63;;;19.10;99.90;;;;;;4169100;28;20048;-61
2023/07/24 05:44:35;;;;;;;4.75;3.40;;;19.10;99.90;;;;;;4172554;28;20127;-61
2023/07/24 05:46:36;;;;;;;6.30;3.55;;;19.10;99.90;;;;;;4165104;28;20103;-61
2023/07/24 05:48:36;;;;;;;6.18;3.55;;;19.10;99.90;;;;;;4173865;28;20045;-62
2023/07/24 05:50:37;;;;;;;5.25;3.40;;;19.20;99.90;;;;;;4173506;28;20065;-61
2023/07/24 05:52:37;;;;;;;6.68;3.40;;;19.20;99.90;;;;;;4161788;28;20033;-61
2023/07/24 05:54:38;;;;;;;5.60;3.55;;;19.20;99.90;;;;;;4176260;28;20061;-62
2023/07/24 05:56:39;;;;;;;6.35;3.88;;;19.20;99.90;;;;;;4168773;28;20045;-62
2023/07/24 05:58:39;;;;;;;6.07;3.90;;;19.20;99.90;;;;;;4174791;28;20091;-62
2023/07/24 06:00:40;;;;;;;8.63;3.80;;;19.20;99.90;;;;;;4170928;28;20036;-61
2023/07/24 06:02:40;;;;;;;8.85;3.85;;;19.30;99.90;;;;;;4172236;28;20551;-62
2023/07/24 06:04:41;;;;;;;5.43;3.35;;;19.30;99.90;;;;;;4156226;28;20036;-65
2023/07/24 06:06:43;;;;;;;4.00;2.67;;;19.20;99.90;;;;;;4172019;28;20044;-62
2023/07/24 06:08:43;;;;;;;2.67;1.85;;;19.20;99.90;;;;;;4173072;28;20499;-61
2023/07/24 06:10:47;;;;;;;3.20;2.10;;;19.20;99.90;;;;;;4151499;28;20037;-62
2023/07/24 06:12:48;;;;;;;2.83;2.00;;;19.20;99.90;;;;;;4169365;28;20485;-62
2023/07/24 06:14:48;;;;;;;3.75;1.80;;;19.20;99.90;;;;;;4167419;28;20033;-61
2023/07/24 06:16:49;;;;;;;2.90;1.30;;;19.20;99.90;;;;;;4170558;28;20039;-62
2023/07/24 06:18:49;;;;;;;3.88;1.75;;;19.20;99.90;;;;;;4173166;28;20039;-62
2023/07/24 06:20:53;;;;;;;3.40;1.75;;;19.20;99.90;;;;;;4153627;28;20037;-61
2023/07/24 06:22:54;;;;;;;2.35;1.70;;;19.20;99.90;;;;;;4171490;28;20091;-62
2023/07/24 06:24:55;;;;;;;1.85;1.38;;;19.20;99.90;;;;;;4172102;28;20069;-61
2023/07/24 06:26:55;;;;;;;1.67;1.20;;;19.30;99.90;;;;;;4178023;28;20087;-62
2023/07/24 06:28:56;;;;;;;1.38;1.10;;;19.30;99.90;;;;;;4173629;28;20469;-62
2023/07/24 06:30:56;;;;;;;2.53;1.30;;;19.30;99.90;;;;;;4152139;28;20462;-61
2023/07/24 06:32:57;;;;;;;2.35;1.13;;;19.40;99.90;;;;;;4148164;28;20029;-61
2023/07/24 06:34:57;;;;;;;1.80;1.08;;;19.40;99.90;;;;;;4173632;28;20052;-61
2023/07/24 06:36:58;;;;;;;2.95;1.33;;;19.40;99.90;;;;;;4174421;28;20491;-62
2023/07/24 06:38:59;;;;;;;1.45;1.20;;;19.40;99.90;;;;;;4174778;28;20123;-61
2023/07/24 06:40:59;;;;;;;1.83;1.02;;;19.40;99.90;;;;;;4176713;28;20063;-62
2023/07/24 06:43:00;;;;;;;3.67;1.23;;;19.50;99.90;;;;;;4177216;28;20025;-62
2023/07/24 06:45:01;;;;;;;1.27;1.10;;;19.50;99.90;;;;;;4169819;28;20048;-62
2023/07/24 06:47:01;;;;;;;1.38;1.10;;;19.50;99.90;;;;;;4164800;28;20044;-61
2023/07/24 06:49:02;;;;;;;2.03;1.23;;;19.50;99.90;;;;;;4171135;28;20041;-61
2023/07/24 06:51:02;;;;;;;2.25;1.40;;;19.50;99.90;;;;;;4172255;28;20427;-62
2023/07/24 06:53:03;;;;;;;3.40;1.48;;;19.50;99.90;;;;;;4181817;28;20052;-61
2023/07/24 06:55:04;;;;;;;2.53;1.48;;;19.50;99.90;;;;;;4170841;28;20120;-62
2023/07/24 06:57:05;;;;;;;1.42;1.20;;;19.50;99.90;;;;;;4174549;28;20124;-62
2023/07/24 06:59:05;;;;;;;1.58;1.10;;;19.50;99.90;;;;;;4171523;28;20544;-62
2023/07/24 07:01:06;;;;;;;1.95;1.40;;;19.40;99.90;;;;;;4171519;28;20092;-62
2023/07/24 07:03:07;;;;;;;1.42;1.25;;;19.50;99.90;;;;;;4171908;28;20116;-62
2023/07/24 07:05:08;;;;;;;1.67;1.30;;;19.50;99.90;;;;;;4164471;28;20048;-63
2023/07/24 07:07:10;;;;;;;2.13;1.42;;;19.50;99.90;;;;;;4177097;28;20117;-61
2023/07/24 07:09:11;;;;;;;1.85;1.40;;;19.50;99.90;;;;;;4179134;28;20033;-61
2023/07/24 07:11:12;;;;;;;1.88;1.33;;;19.50;99.90;;;;;;4157671;28;20079;-62
2023/07/24 07:13:12;;;;;;;3.33;1.30;;;19.50;99.90;;;;;;4180061;28;20425;-62
2023/07/24 07:15:13;;;;;;;1.05;0.95;;;19.50;99.90;;;;;;4175855;28;20104;-62
2023/07/24 07:17:14;;;;;;;1.30;1.20;;;19.50;99.90;;;;;;4178092;28;20033;-62
2023/07/24 07:19:14;;;;;;;1.98;1.35;;;19.60;99.90;;;;;;4180133;28;20060;-61
2023/07/24 07:21:15;;;;;;;2.72;1.30;;;19.60;99.90;;;;;;4179427;28;20040;-62
2023/07/24 07:23:16;;;;;;;2.28;1.48;;;19.60;99.90;;;;;;4179518;28;20033;-62
2023/07/24 07:25:17;;;;;;;1.85;1.30;;;19.70;99.90;;;;;;4175979;28;20033;-62
2023/07/24 07:27:17;;;;;;;1.73;1.60;;;19.70;99.90;;;;;;4179497;28;20537;-66
2023/07/24 07:29:18;;;;;;;1.67;1.58;;;19.70;99.90;;;;;;4176106;28;20128;-62
2023/07/24 07:31:18;;;;;;;2.03;1.65;;;19.70;99.90;;;;;;4168377;28;20477;-62
2023/07/24 07:33:21;;;;;;;2.13;1.38;;;19.70;99.90;;;;;;4179627;28;20403;-62
2023/07/24 07:35:22;;;;;;;2.00;1.75;;;19.70;99.90;;;;;;4176557;28;20471;-62
2023/07/24 07:37:22;;;;;;;1.60;1.50;;;19.70;99.90;;;;;;4180076;28;20451;-62
2023/07/24 07:39:23;;;;;;;1.15;1.08;;;19.70;99.90;;;;;;4178387;28;20048;-62
2023/07/24 07:41:24;;;;;;;1.60;1.10;;;19.70;99.90;;;;;;4177941;28;20467;-62
2023/07/24 07:43:24;;;;;;;1.55;1.30;;;19.70;99.90;;;;;;4181295;28;20114;-61
2023/07/24 07:45:25;;;;;;;1.67;1.33;;;19.70;99.90;;;;;;4175941;28;20948;-62
2023/07/24 07:47:25;;;;;;;1.83;1.50;;;19.70;99.90;;;;;;4172289;28;20052;-62
2023/07/24 07:49:26;;;;;;;1.33;1.08;;;19.70;99.90;;;;;;4181078;28;20052;-62
2023/07/24 07:51:27;;;;;;;3.20;1.25;;;19.70;99.90;;;;;;4174386;28;20033;-61
2023/07/24 07:53:27;;;;;;;1.20;1.00;;;19.60;99.90;;;;;;4180931;28;20040;-62
2023/07/24 07:55:28;;;;;;;1.60;1.40;;;19.70;99.90;;;;;;4174942;28;20036;-62
2023/07/24 07:57:28;;;;;;;1.35;1.23;;;19.70;99.90;;;;;;4178127;28;20112;-62
2023/07/24 07:59:29;;;;;;;2.22;1.20;;;19.60;99.90;;;;;;4173466;28;20041;-62
2023/07/24 08:01:30;;;;;;;1.77;1.15;;;19.60;99.90;;;;;;4173072;28;20064;-62
2023/07/24 08:03:31;;;;;;;1.17;1.00;;;19.70;99.90;;;;;;4156215;28;20580;-62
2023/07/24 08:05:32;;;;;;;1.13;1.02;;;19.70;99.90;;;;;;4177944;28;20121;-62
2023/07/24 08:07:32;;;;;;;1.98;1.75;;;19.80;99.90;;;;;;4158677;28;20816;-62
2023/07/24 08:09:33;;;;;;;5.25;3.30;;;19.80;99.90;;;;;;4170321;28;20094;-62
2023/07/24 08:11:34;;;;;;;5.13;2.58;;;19.90;99.90;;;;;;4177163;28;20492;-62
2023/07/24 08:13:34;;;;;;;3.30;2.00;;;19.90;99.90;;;;;;4179435;28;20036;-62
2023/07/24 08:15:36;;;;;;;1.75;1.25;;;20.00;99.90;;;;;;4175559;28;20041;-62
2023/07/24 08:17:37;;;;;;;1.98;1.23;;;20.00;99.90;;;;;;4173641;28;20834;-62
2023/07/24 08:19:38;;;;;;;1.73;1.10;;;20.00;99.90;;;;;;4177595;28;20480;-62
2023/07/24 08:21:40;;;;;;;1.30;1.10;;;20.10;99.90;;;;;;4174791;28;20379;-62
2023/07/24 08:23:41;;;;;;;1.13;0.93;;;20.20;99.90;;;;;;4172517;28;20025;-62
2023/07/24 08:25:59;;;;;;;0.98;0.88;;;20.30;99.90;;;;;;4174774;28;20124;-62
2023/07/24 08:27:59;;;;;;;1.02;0.80;;;20.40;99.90;;;;;;4171251;28;20037;-62
2023/07/24 08:30:00;;;;;;;1.35;0.98;;;20.50;99.90;;;;;;4171213;28;20171;-62
2023/07/24 08:32:01;;;;;;;1.83;0.93;;;20.60;99.90;;;;;;4167886;28;20036;-62
2023/07/24 08:34:01;;;;;;;1.00;0.90;;;20.60;99.90;;;;;;4169368;28;20033;-62
2023/07/24 08:36:06;;;;;;;1.85;0.90;;;20.60;99.90;;;;;;4173208;28;20044;-62
2023/07/24 08:38:07;;;;;;;1.23;1.10;;;20.70;99.90;;;;;;4172699;28;20041;-62
2023/07/24 08:40:09;;;;;;;1.17;0.90;;;20.80;99.90;;;;;;4173038;28;20425;-63
2023/07/24 08:42:11;;;;;;;2.25;1.02;;;20.90;99.90;;;;;;4173419;28;20442;-62
2023/07/24 08:44:12;;;;;;;1.80;1.20;;;21.00;99.90;;;;;;4173841;28;21038;-62
2023/07/24 08:46:13;;;;;;;1.40;1.00;;;21.10;99.90;;;;;;4173594;28;20054;-62
2023/07/24 08:48:13;;;;;;;2.05;1.25;;;21.20;99.90;;;;;;4176117;28;20136;-62
2023/07/24 08:50:15;;;;;;;1.20;1.10;;;21.30;99.90;;;;;;4176494;28;20511;-63
2023/07/24 08:52:16;;;;;;;1.58;1.05;;;21.30;99.90;;;;;;4183739;28;20037;-63
2023/07/24 08:54:18;;;;;;;1.70;1.50;;;21.30;99.90;;;;;;4180369;28;20078;-63
2023/07/24 08:56:19;;;;;;;1.02;0.93;;;21.40;99.90;;;;;;4177545;28;20048;-63
2023/07/24 08:58:20;;;;;;;1.73;1.20;;;21.50;99.90;;;;;;4172785;28;20181;-64
2023/07/24 09:00:20;;;;;;;1.70;1.40;;;21.50;99.90;;;;;;4176530;28;20045;-63
2023/07/24 09:02:21;;;;;;;1.80;1.30;;;21.50;99.90;;;;;;4180025;28;20029;-63
2023/07/24 09:04:22;;;;;;;1.45;1.17;;;21.50;99.90;;;;;;4181451;28;20052;-63
2023/07/24 09:06:22;;;;;;;1.80;1.33;;;21.50;99.90;;;;;;4175130;28;20038;-63
2023/07/24 09:08:31;;;;;;;1.92;1.33;;;21.50;99.90;;;;;;4177424;28;20036;-63
2023/07/24 09:10:31;;;;;;;1.98;1.50;;;21.60;99.90;;;;;;4150892;28;20394;-63
2023/07/24 09:12:32;;;;;;;1.80;1.23;;;21.60;99.90;;;;;;4176883;28;20047;-63
2023/07/24 09:14:32;;;;;;;1.70;1.50;;;21.60;99.90;;;;;;4166556;28;20033;-63
2023/07/24 09:16:33;;;;;;;1.83;1.60;;;21.70;99.90;;;;;;4171872;28;20033;-63
2023/07/24 09:18:43;;;;;;;1.58;1.42;;;21.70;99.90;;;;;;4171857;28;20043;-63
2023/07/24 09:20:44;;;;;;;1.42;1.30;;;21.80;99.90;;;;;;4171897;28;20025;-63
2023/07/24 09:22:53;;;;;;;1.30;1.20;;;21.80;99.90;;;;;;4176291;28;20044;-62
2023/07/24 09:24:55;;;;;;;2.33;1.55;;;21.80;99.90;;;;;;4166867;28;20044;-63
2023/07/24 09:26:56;;;;;;;;;;;21.90;99.90;;;;;;4182001;28;20058;-63
2023/07/24 09:28:56;;;;;;;1.35;1.15;;;22.00;99.90;;;;;;4178241;28;19999;-63
2023/07/24 09:31:00;;;;;;;2.17;1.50;;;22.00;99.90;;;;;;4166573;28;20052;-63
2023/07/24 09:33:01;;;;;;;2.10;1.48;;;22.00;99.90;;;;;;4174532;28;20048;-63
2023/07/24 09:35:01;;;;;;;2.13;1.50;;;22.00;99.90;;;;;;4172363;28;20519;-64
2023/07/24 09:37:02;;;;;;;1.10;1.00;;;22.00;99.90;;;;;;4177300;28;20035;-63
2023/07/24 09:39:06;;;;;;;1.75;1.30;;;22.00;99.90;;;;;;4178306;28;20055;-63
2023/07/24 09:41:06;;;;;;;2.03;1.40;;;22.00;99.90;;;;;;4164192;28;20052;-63
2023/07/24 09:43:23;;;;;;;1.25;1.08;;;22.00;99.90;;;;;;4166913;28;20492;-63
2023/07/24 09:45:26;;;;;;;1.38;1.27;;;22.00;99.90;;;;;;4169370;28;20529;-63
2023/07/24 09:47:26;;;;;;;1.33;1.05;;;21.90;99.90;;;;;;4169241;28;20034;-63
2023/07/24 09:49:27;;;;;;;1.23;1.13;;;21.90;99.90;;;;;;4168798;28;20053;-63
2023/07/24 09:51:29;;;;;;;1.88;1.38;;;21.90;99.90;;;;;;4167883;28;20098;-63
2023/07/24 09:53:50;;;;;;;1.25;1.15;;;21.90;99.90;;;;;;4169318;28;20043;-63
2023/07/24 09:55:58;;;;;;;2.25;1.10;;;21.80;99.90;;;;;;4153512;28;20060;-64
2023/07/24 09:58:00;;;;;;;1.45;1.10;;;21.90;99.90;;;;;;4164841;28;20112;-63
2023/07/24 10:00:01;;;;;;;3.15;1.15;;;21.80;99.90;;;;;;4167620;28;20036;-63
2023/07/24 10:02:03;;;;;;;1.40;1.00;;;21.80;99.90;;;;;;4164073;28;20026;-63
2023/07/24 10:04:04;;;;;;;1.40;1.00;;;21.80;99.90;;;;;;4172065;28;20033;-63
2023/07/24 10:06:05;;;;;;;1.73;1.27;;;21.90;99.90;;;;;;4167889;28;20396;-63
2023/07/24 10:08:06;;;;;;;1.58;1.20;;;21.80;99.90;;;;;;4170593;28;20038;-63
2023/07/24 10:10:07;;;;;;;1.27;1.17;;;21.80;99.90;;;;;;4174774;28;20497;-64
2023/07/24 10:12:09;;;;;;;1.63;1.00;;;21.80;99.90;;;;;;4152168;28;20565;-64
2023/07/24 10:14:10;;;;;;;2.03;0.98;;;21.80;99.90;;;;;;4167177;28;20037;-63
2023/07/24 10:16:10;;;;;;;1.95;1.35;;;21.80;99.90;;;;;;4170496;28;20043;-63
2023/07/24 10:18:11;;;;;;;1.88;1.20;;;21.90;99.90;;;;;;4174769;28;20068;-63
2023/07/24 10:20:16;;;;;;;2.45;1.13;;;21.90;99.90;;;;;;4168123;28;20112;-63
2023/07/24 10:22:19;;;;;;;1.45;1.00;;;21.90;99.90;;;;;;4173177;28;20040;-63
2023/07/24 10:24:23;;;;;;;1.10;1.00;;;22.00;99.90;;;;;;4173236;28;20480;-63
2023/07/24 10:26:26;;;;;;;1.30;1.15;;;22.00;99.90;;;;;;4171817;28;20044;-63
2023/07/24 10:28:30;;;;;;;;;;;22.00;99.90;;;;;;4150183;28;20148;-63
2023/07/24 10:30:31;;;;;;;2.05;1.17;;;22.00;99.90;;;;;;4166984;28;20023;-63
2023/07/24 10:32:31;;;;;;;2.17;1.33;;;22.00;99.90;;;;;;4151767;28;20100;-63